sensor_id;sensor_type;location;lat;lon;timestamp;temperature;humidity
49379;DHT22;35254;47.990;-1.608;2022-12-10T00:01:22;18.60;43.20
49379;DHT22;35254;47.990;-1.608;2022-12-10T00:03:48;18.60;42.30
49379;DHT22;35254;47.990;-1.608;2022-12-10T00:06:16;18.60;41.70
49379;DHT22;35254;47.990;-1.608;2022-12-10T00:08:42;18.50;41.30
49379;DHT22;35254;47.990;-1.608;2022-12-10T00:11:10;18.50;42.10
49379;DHT22;35254;47.990;-1.608;2022-12-10T00:13:37;18.50;41.90
49379;DHT22;35254;47.990;-1.608;2022-12-10T00:16:04;18.50;42.20
49379;DHT22;35254;47.990;-1.608;2022-12-10T00:18:31;18.50;41.90
49379;DHT22;35254;47.990;-1.608;2022-12-10T00:20:56;18.40;41.90
49379;DHT22;35254;47.990;-1.608;2022-12-10T00:23:22;18.50;41.80
49379;DHT22;35254;47.990;-1.608;2022-12-10T00:25:48;18.40;41.80
49379;DHT22;35254;47.990;-1.608;2022-12-10T00:28:14;18.40;41.80
49379;DHT22;35254;47.990;-1.608;2022-12-10T00:30:39;18.40;41.70
49379;DHT22;35254;47.990;-1.608;2022-12-10T00:33:05;18.40;41.60
49379;DHT22;35254;47.990;-1.608;2022-12-10T00:35:31;18.40;41.80
49379;DHT22;35254;47.990;-1.608;2022-12-10T00:37:59;18.30;41.50
49379;DHT22;35254;47.990;-1.608;2022-12-10T00:40:25;18.30;41.40
49379;DHT22;35254;47.990;-1.608;2022-12-10T00:42:51;18.30;41.40
49379;DHT22;35254;47.990;-1.608;2022-12-10T00:45:16;18.30;41.60
49379;DHT22;35254;47.990;-1.608;2022-12-10T00:47:42;18.30;41.40
49379;DHT22;35254;47.990;-1.608;2022-12-10T00:50:08;18.20;41.20
49379;DHT22;35254;47.990;-1.608;2022-12-10T00:52:33;18.30;41.10
49379;DHT22;35254;47.990;-1.608;2022-12-10T00:54:59;18.30;41.30
49379;DHT22;35254;47.990;-1.608;2022-12-10T00:57:24;18.30;41.20
49379;DHT22;35254;47.990;-1.608;2022-12-10T00:59:50;18.20;41.00
49379;DHT22;35254;47.990;-1.608;2022-12-10T01:02:16;18.30;40.90
49379;DHT22;35254;47.990;-1.608;2022-12-10T01:04:41;18.20;40.80
49379;DHT22;35254;47.990;-1.608;2022-12-10T01:07:07;18.30;40.80
49379;DHT22;35254;47.990;-1.608;2022-12-10T01:09:34;18.20;40.60
49379;DHT22;35254;47.990;-1.608;2022-12-10T01:12:01;18.20;40.60
49379;DHT22;35254;47.990;-1.608;2022-12-10T01:14:30;18.20;40.80
49379;DHT22;35254;47.990;-1.608;2022-12-10T01:16:59;18.20;40.50
49379;DHT22;35254;47.990;-1.608;2022-12-10T01:19:26;18.20;40.40
49379;DHT22;35254;47.990;-1.608;2022-12-10T01:21:53;18.20;40.60
49379;DHT22;35254;47.990;-1.608;2022-12-10T01:24:23;18.20;40.70
49379;DHT22;35254;47.990;-1.608;2022-12-10T01:26:49;18.20;40.60
49379;DHT22;35254;47.990;-1.608;2022-12-10T01:29:15;18.20;40.40
49379;DHT22;35254;47.990;-1.608;2022-12-10T01:31:41;18.20;40.30
49379;DHT22;35254;47.990;-1.608;2022-12-10T01:34:11;18.20;40.60
49379;DHT22;35254;47.990;-1.608;2022-12-10T01:36:39;18.20;40.40
49379;DHT22;35254;47.990;-1.608;2022-12-10T01:39:07;18.10;40.60
49379;DHT22;35254;47.990;-1.608;2022-12-10T01:41:35;18.20;40.70
49379;DHT22;35254;47.990;-1.608;2022-12-10T01:46:38;18.10;40.90
49379;DHT22;35254;47.990;-1.608;2022-12-10T01:49:16;18.10;40.60
49379;DHT22;35254;47.990;-1.608;2022-12-10T01:51:44;18.10;41.00
49379;DHT22;35254;47.990;-1.608;2022-12-10T01:54:14;18.10;40.90
49379;DHT22;35254;47.990;-1.608;2022-12-10T01:56:43;18.10;40.90
49379;DHT22;35254;47.990;-1.608;2022-12-10T01:59:09;18.10;40.70
49379;DHT22;35254;47.990;-1.608;2022-12-10T02:01:54;18.10;40.50
49379;DHT22;35254;47.990;-1.608;2022-12-10T02:08:38;18.10;40.40
49379;DHT22;35254;47.990;-1.608;2022-12-10T02:13:11;18.10;40.00
49379;DHT22;35254;47.990;-1.608;2022-12-10T02:15:51;18.00;40.20
49379;DHT22;35254;47.990;-1.608;2022-12-10T02:18:39;18.10;40.10
49379;DHT22;35254;47.990;-1.608;2022-12-10T02:21:11;18.00;40.10
49379;DHT22;35254;47.990;-1.608;2022-12-10T02:23:46;18.00;40.10
49379;DHT22;35254;47.990;-1.608;2022-12-10T02:29:17;18.00;40.00
49379;DHT22;35254;47.990;-1.608;2022-12-10T02:32:11;18.00;39.50
49379;DHT22;35254;47.990;-1.608;2022-12-10T02:34:42;18.00;39.60
49379;DHT22;35254;47.990;-1.608;2022-12-10T02:37:22;18.10;39.10
49379;DHT22;35254;47.990;-1.608;2022-12-10T02:39:51;18.00;39.00
49379;DHT22;35254;47.990;-1.608;2022-12-10T02:42:19;18.00;38.90
49379;DHT22;35254;47.990;-1.608;2022-12-10T02:44:48;18.00;38.80
49379;DHT22;35254;47.990;-1.608;2022-12-10T02:47:16;18.00;38.80
49379;DHT22;35254;47.990;-1.608;2022-12-10T02:49:44;18.00;38.80
49379;DHT22;35254;47.990;-1.608;2022-12-10T02:52:15;18.00;38.70
49379;DHT22;35254;47.990;-1.608;2022-12-10T02:54:45;18.00;38.90
49379;DHT22;35254;47.990;-1.608;2022-12-10T03:00:18;18.00;38.80
49379;DHT22;35254;47.990;-1.608;2022-12-10T03:08:25;18.00;39.20
49379;DHT22;35254;47.990;-1.608;2022-12-10T03:11:11;17.90;38.80
49379;DHT22;35254;47.990;-1.608;2022-12-10T03:14:02;17.90;39.00
49379;DHT22;35254;47.990;-1.608;2022-12-10T03:16:35;17.90;38.70
49379;DHT22;35254;47.990;-1.608;2022-12-10T03:19:06;17.90;38.40
49379;DHT22;35254;47.990;-1.608;2022-12-10T03:21:34;17.90;38.30
49379;DHT22;35254;47.990;-1.608;2022-12-10T03:24:01;17.90;38.40
49379;DHT22;35254;47.990;-1.608;2022-12-10T03:26:27;17.90;38.30
49379;DHT22;35254;47.990;-1.608;2022-12-10T03:28:59;17.90;38.20
49379;DHT22;35254;47.990;-1.608;2022-12-10T03:31:26;17.90;38.20
49379;DHT22;35254;47.990;-1.608;2022-12-10T03:33:53;17.90;38.20
49379;DHT22;35254;47.990;-1.608;2022-12-10T03:36:20;17.90;38.10
49379;DHT22;35254;47.990;-1.608;2022-12-10T03:38:46;17.90;38.00
49379;DHT22;35254;47.990;-1.608;2022-12-10T03:41:12;17.90;38.00
49379;DHT22;35254;47.990;-1.608;2022-12-10T03:43:52;17.90;38.00
49379;DHT22;35254;47.990;-1.608;2022-12-10T03:46:18;17.90;38.10
49379;DHT22;35254;47.990;-1.608;2022-12-10T03:48:44;17.90;38.00
49379;DHT22;35254;47.990;-1.608;2022-12-10T03:51:10;17.90;38.10
49379;DHT22;35254;47.990;-1.608;2022-12-10T03:53:35;17.80;38.10
49379;DHT22;35254;47.990;-1.608;2022-12-10T03:56:01;17.90;38.00
49379;DHT22;35254;47.990;-1.608;2022-12-10T03:58:26;17.80;38.30
49379;DHT22;35254;47.990;-1.608;2022-12-10T04:00:52;17.80;38.40
49379;DHT22;35254;47.990;-1.608;2022-12-10T04:03:17;17.80;38.50
49379;DHT22;35254;47.990;-1.608;2022-12-10T04:05:43;17.80;38.60
49379;DHT22;35254;47.990;-1.608;2022-12-10T04:08:09;17.80;38.70
49379;DHT22;35254;47.990;-1.608;2022-12-10T04:10:38;17.80;38.90
49379;DHT22;35254;47.990;-1.608;2022-12-10T04:13:04;17.80;38.90
49379;DHT22;35254;47.990;-1.608;2022-12-10T04:15:49;17.80;38.90
49379;DHT22;35254;47.990;-1.608;2022-12-10T04:18:33;17.80;38.80
49379;DHT22;35254;47.990;-1.608;2022-12-10T04:20:58;17.80;38.80
49379;DHT22;35254;47.990;-1.608;2022-12-10T04:23:43;17.70;38.90
49379;DHT22;35254;47.990;-1.608;2022-12-10T04:26:27;17.70;39.00
49379;DHT22;35254;47.990;-1.608;2022-12-10T04:29:11;17.70;39.10
49379;DHT22;35254;47.990;-1.608;2022-12-10T04:31:37;17.70;38.90
49379;DHT22;35254;47.990;-1.608;2022-12-10T04:34:02;17.70;39.10
49379;DHT22;35254;47.990;-1.608;2022-12-10T04:36:28;17.70;39.20
49379;DHT22;35254;47.990;-1.608;2022-12-10T04:38:53;17.80;39.10
49379;DHT22;35254;47.990;-1.608;2022-12-10T04:41:19;17.70;39.10
49379;DHT22;35254;47.990;-1.608;2022-12-10T04:43:45;17.70;39.20
49379;DHT22;35254;47.990;-1.608;2022-12-10T04:46:10;17.70;39.10
49379;DHT22;35254;47.990;-1.608;2022-12-10T04:48:36;17.70;39.10
49379;DHT22;35254;47.990;-1.608;2022-12-10T04:51:02;17.70;39.00
49379;DHT22;35254;47.990;-1.608;2022-12-10T04:53:28;17.70;39.10
49379;DHT22;35254;47.990;-1.608;2022-12-10T04:55:54;17.70;39.10
49379;DHT22;35254;47.990;-1.608;2022-12-10T04:58:19;17.70;39.20
49379;DHT22;35254;47.990;-1.608;2022-12-10T05:00:45;17.70;39.30
49379;DHT22;35254;47.990;-1.608;2022-12-10T05:03:10;17.70;39.20
49379;DHT22;35254;47.990;-1.608;2022-12-10T05:05:36;17.70;39.20
49379;DHT22;35254;47.990;-1.608;2022-12-10T05:08:02;17.70;39.30
49379;DHT22;35254;47.990;-1.608;2022-12-10T05:10:28;17.70;39.40
49379;DHT22;35254;47.990;-1.608;2022-12-10T05:12:53;17.70;39.20
49379;DHT22;35254;47.990;-1.608;2022-12-10T05:15:19;17.80;39.10
49379;DHT22;35254;47.990;-1.608;2022-12-10T05:17:46;17.70;39.20
49379;DHT22;35254;47.990;-1.608;2022-12-10T05:20:11;17.70;39.00
49379;DHT22;35254;47.990;-1.608;2022-12-10T05:22:37;17.80;39.20
49379;DHT22;35254;47.990;-1.608;2022-12-10T05:25:21;17.80;39.10
49379;DHT22;35254;47.990;-1.608;2022-12-10T05:27:47;17.80;38.90
49379;DHT22;35254;47.990;-1.608;2022-12-10T05:30:12;17.80;39.10
49379;DHT22;35254;47.990;-1.608;2022-12-10T05:32:38;17.70;39.10
49379;DHT22;35254;47.990;-1.608;2022-12-10T05:35:04;17.70;38.90
49379;DHT22;35254;47.990;-1.608;2022-12-10T05:37:30;17.80;39.10
49379;DHT22;35254;47.990;-1.608;2022-12-10T05:39:55;17.80;39.00
49379;DHT22;35254;47.990;-1.608;2022-12-10T05:42:21;17.80;38.90
49379;DHT22;35254;47.990;-1.608;2022-12-10T05:44:47;17.80;38.90
49379;DHT22;35254;47.990;-1.608;2022-12-10T05:47:12;17.80;38.80
49379;DHT22;35254;47.990;-1.608;2022-12-10T05:49:38;17.80;38.80
49379;DHT22;35254;47.990;-1.608;2022-12-10T05:52:04;17.80;38.60
49379;DHT22;35254;47.990;-1.608;2022-12-10T05:54:29;17.80;38.80
49379;DHT22;35254;47.990;-1.608;2022-12-10T05:56:55;17.80;38.90
49379;DHT22;35254;47.990;-1.608;2022-12-10T05:59:21;17.90;38.60
49379;DHT22;35254;47.990;-1.608;2022-12-10T06:01:46;17.90;38.90
49379;DHT22;35254;47.990;-1.608;2022-12-10T06:04:12;17.80;38.70
49379;DHT22;35254;47.990;-1.608;2022-12-10T06:06:39;17.80;38.30
49379;DHT22;35254;47.990;-1.608;2022-12-10T06:09:07;17.80;38.30
49379;DHT22;35254;47.990;-1.608;2022-12-10T06:11:33;17.90;38.30
49379;DHT22;35254;47.990;-1.608;2022-12-10T06:13:59;17.90;38.10
49379;DHT22;35254;47.990;-1.608;2022-12-10T06:16:26;17.90;38.30
49379;DHT22;35254;47.990;-1.608;2022-12-10T06:18:52;17.90;38.10
49379;DHT22;35254;47.990;-1.608;2022-12-10T06:21:19;17.90;38.30
49379;DHT22;35254;47.990;-1.608;2022-12-10T06:23:46;17.90;38.30
49379;DHT22;35254;47.990;-1.608;2022-12-10T06:26:18;17.90;38.40
49379;DHT22;35254;47.990;-1.608;2022-12-10T06:28:45;17.90;38.40
49379;DHT22;35254;47.990;-1.608;2022-12-10T06:31:11;17.90;38.50
49379;DHT22;35254;47.990;-1.608;2022-12-10T06:33:37;17.90;38.60
49379;DHT22;35254;47.990;-1.608;2022-12-10T06:36:04;17.90;38.50
49379;DHT22;35254;47.990;-1.608;2022-12-10T06:38:30;18.00;38.40
49379;DHT22;35254;47.990;-1.608;2022-12-10T06:40:56;17.90;38.60
49379;DHT22;35254;47.990;-1.608;2022-12-10T06:43:22;18.00;38.60
49379;DHT22;35254;47.990;-1.608;2022-12-10T06:45:47;18.00;38.50
49379;DHT22;35254;47.990;-1.608;2022-12-10T06:48:13;18.00;38.50
49379;DHT22;35254;47.990;-1.608;2022-12-10T06:50:38;18.00;38.60
49379;DHT22;35254;47.990;-1.608;2022-12-10T06:53:04;18.00;38.60
49379;DHT22;35254;47.990;-1.608;2022-12-10T06:55:30;18.00;38.60
49379;DHT22;35254;47.990;-1.608;2022-12-10T06:57:55;18.00;38.50
49379;DHT22;35254;47.990;-1.608;2022-12-10T07:00:21;18.00;38.60
49379;DHT22;35254;47.990;-1.608;2022-12-10T07:02:48;18.00;38.60
49379;DHT22;35254;47.990;-1.608;2022-12-10T07:05:14;18.00;38.60
49379;DHT22;35254;47.990;-1.608;2022-12-10T07:07:40;18.10;38.70
49379;DHT22;35254;47.990;-1.608;2022-12-10T07:10:06;18.10;38.70
49379;DHT22;35254;47.990;-1.608;2022-12-10T07:12:31;18.00;38.50
49379;DHT22;35254;47.990;-1.608;2022-12-10T07:14:57;18.10;38.60
49379;DHT22;35254;47.990;-1.608;2022-12-10T07:17:23;18.10;38.40
49379;DHT22;35254;47.990;-1.608;2022-12-10T07:19:48;18.10;38.60
49379;DHT22;35254;47.990;-1.608;2022-12-10T07:22:14;18.00;38.60
49379;DHT22;35254;47.990;-1.608;2022-12-10T07:24:40;18.10;38.60
49379;DHT22;35254;47.990;-1.608;2022-12-10T07:27:06;18.10;38.60
49379;DHT22;35254;47.990;-1.608;2022-12-10T07:29:33;18.10;38.40
49379;DHT22;35254;47.990;-1.608;2022-12-10T07:31:58;18.10;38.60
49379;DHT22;35254;47.990;-1.608;2022-12-10T07:34:24;18.10;38.70
49379;DHT22;35254;47.990;-1.608;2022-12-10T07:36:50;18.20;38.40
49379;DHT22;35254;47.990;-1.608;2022-12-10T07:39:15;18.10;38.50
49379;DHT22;35254;47.990;-1.608;2022-12-10T07:41:48;18.20;38.70
49379;DHT22;35254;47.990;-1.608;2022-12-10T07:44:16;18.20;38.60
49379;DHT22;35254;47.990;-1.608;2022-12-10T07:46:44;18.20;38.70
49379;DHT22;35254;47.990;-1.608;2022-12-10T07:49:09;18.20;38.70
49379;DHT22;35254;47.990;-1.608;2022-12-10T07:51:35;18.20;38.70
49379;DHT22;35254;47.990;-1.608;2022-12-10T07:54:00;18.20;38.70
49379;DHT22;35254;47.990;-1.608;2022-12-10T07:56:26;18.20;38.90
49379;DHT22;35254;47.990;-1.608;2022-12-10T07:58:53;18.20;38.90
49379;DHT22;35254;47.990;-1.608;2022-12-10T08:01:25;18.20;38.90
49379;DHT22;35254;47.990;-1.608;2022-12-10T08:03:52;18.20;38.90
49379;DHT22;35254;47.990;-1.608;2022-12-10T08:06:19;18.20;38.90
49379;DHT22;35254;47.990;-1.608;2022-12-10T08:08:45;18.20;38.80
49379;DHT22;35254;47.990;-1.608;2022-12-10T08:11:13;18.20;38.70
49379;DHT22;35254;47.990;-1.608;2022-12-10T08:13:39;18.20;38.50
49379;DHT22;35254;47.990;-1.608;2022-12-10T08:16:08;18.20;38.70
49379;DHT22;35254;47.990;-1.608;2022-12-10T08:18:35;18.30;38.60
49379;DHT22;35254;47.990;-1.608;2022-12-10T08:21:05;18.20;38.60
49379;DHT22;35254;47.990;-1.608;2022-12-10T08:23:31;18.20;38.50
49379;DHT22;35254;47.990;-1.608;2022-12-10T08:25:56;18.20;38.70
49379;DHT22;35254;47.990;-1.608;2022-12-10T08:28:22;18.30;38.50
49379;DHT22;35254;47.990;-1.608;2022-12-10T08:30:48;18.20;38.40
49379;DHT22;35254;47.990;-1.608;2022-12-10T08:33:14;18.30;38.60
49379;DHT22;35254;47.990;-1.608;2022-12-10T08:35:40;18.30;38.60
49379;DHT22;35254;47.990;-1.608;2022-12-10T08:38:06;18.40;38.80
49379;DHT22;35254;47.990;-1.608;2022-12-10T08:40:32;18.40;38.70
49379;DHT22;35254;47.990;-1.608;2022-12-10T08:42:57;18.40;38.50
49379;DHT22;35254;47.990;-1.608;2022-12-10T08:45:23;18.40;38.40
49379;DHT22;35254;47.990;-1.608;2022-12-10T08:47:49;18.40;38.60
49379;DHT22;35254;47.990;-1.608;2022-12-10T08:50:14;18.40;38.60
49379;DHT22;35254;47.990;-1.608;2022-12-10T08:52:40;18.40;38.50
49379;DHT22;35254;47.990;-1.608;2022-12-10T08:55:06;18.40;38.50
49379;DHT22;35254;47.990;-1.608;2022-12-10T08:57:32;18.40;38.60
49379;DHT22;35254;47.990;-1.608;2022-12-10T08:59:58;18.50;38.80
49379;DHT22;35254;47.990;-1.608;2022-12-10T09:02:23;18.50;38.90
49379;DHT22;35254;47.990;-1.608;2022-12-10T09:04:50;18.60;39.10
49379;DHT22;35254;47.990;-1.608;2022-12-10T09:07:16;18.60;39.10
49379;DHT22;35254;47.990;-1.608;2022-12-10T09:09:41;18.60;39.10
49379;DHT22;35254;47.990;-1.608;2022-12-10T09:12:07;18.60;39.20
49379;DHT22;35254;47.990;-1.608;2022-12-10T09:14:32;18.60;39.30
49379;DHT22;35254;47.990;-1.608;2022-12-10T09:16:58;18.60;39.20
49379;DHT22;35254;47.990;-1.608;2022-12-10T09:19:24;18.60;39.20
49379;DHT22;35254;47.990;-1.608;2022-12-10T09:21:50;18.60;39.20
49379;DHT22;35254;47.990;-1.608;2022-12-10T09:24:15;18.60;39.10
49379;DHT22;35254;47.990;-1.608;2022-12-10T09:26:41;18.60;39.10
49379;DHT22;35254;47.990;-1.608;2022-12-10T09:29:06;18.60;39.20
49379;DHT22;35254;47.990;-1.608;2022-12-10T09:31:32;18.60;39.00
49379;DHT22;35254;47.990;-1.608;2022-12-10T09:33:58;18.60;38.80
49379;DHT22;35254;47.990;-1.608;2022-12-10T09:36:23;18.60;39.00
49379;DHT22;35254;47.990;-1.608;2022-12-10T09:38:49;18.60;39.00
49379;DHT22;35254;47.990;-1.608;2022-12-10T09:46:48;18.60;39.20
49379;DHT22;35254;47.990;-1.608;2022-12-10T09:52:22;18.70;39.30
49379;DHT22;35254;47.990;-1.608;2022-12-10T09:54:55;18.70;39.30
49379;DHT22;35254;47.990;-1.608;2022-12-10T09:57:54;18.70;39.30
49379;DHT22;35254;47.990;-1.608;2022-12-10T10:02:45;18.70;39.40
49379;DHT22;35254;47.990;-1.608;2022-12-10T10:05:24;18.80;39.40
49379;DHT22;35254;47.990;-1.608;2022-12-10T10:07:55;18.80;39.50
49379;DHT22;35254;47.990;-1.608;2022-12-10T10:10:32;18.90;39.50
49379;DHT22;35254;47.990;-1.608;2022-12-10T10:15:39;19.00;39.50
49379;DHT22;35254;47.990;-1.608;2022-12-10T10:18:17;19.00;39.50
49379;DHT22;35254;47.990;-1.608;2022-12-10T10:20:46;19.00;39.60
49379;DHT22;35254;47.990;-1.608;2022-12-10T10:23:14;19.10;39.80
49379;DHT22;35254;47.990;-1.608;2022-12-10T10:25:40;19.10;39.90
49379;DHT22;35254;47.990;-1.608;2022-12-10T10:28:11;19.10;39.90
49379;DHT22;35254;47.990;-1.608;2022-12-10T10:30:40;19.10;40.00
49379;DHT22;35254;47.990;-1.608;2022-12-10T10:33:09;19.20;40.00
49379;DHT22;35254;47.990;-1.608;2022-12-10T10:35:47;19.20;40.00
49379;DHT22;35254;47.990;-1.608;2022-12-10T10:38:20;19.20;40.20
49379;DHT22;35254;47.990;-1.608;2022-12-10T10:40:59;19.20;40.30
49379;DHT22;35254;47.990;-1.608;2022-12-10T10:43:40;19.20;40.30
49379;DHT22;35254;47.990;-1.608;2022-12-10T10:48:38;19.30;40.10
49379;DHT22;35254;47.990;-1.608;2022-12-10T10:53:49;19.40;40.00
49379;DHT22;35254;47.990;-1.608;2022-12-10T10:56:41;19.40;40.00
49379;DHT22;35254;47.990;-1.608;2022-12-10T10:59:29;19.40;40.00
49379;DHT22;35254;47.990;-1.608;2022-12-10T11:02:03;19.50;39.90
49379;DHT22;35254;47.990;-1.608;2022-12-10T11:04:31;19.50;40.10
49379;DHT22;35254;47.990;-1.608;2022-12-10T11:07:03;19.60;40.10
49379;DHT22;35254;47.990;-1.608;2022-12-10T11:09:32;19.60;40.40
49379;DHT22;35254;47.990;-1.608;2022-12-10T11:12:04;19.70;40.50
49379;DHT22;35254;47.990;-1.608;2022-12-10T11:14:39;19.70;40.80
49379;DHT22;35254;47.990;-1.608;2022-12-10T11:19:36;19.70;42.10
49379;DHT22;35254;47.990;-1.608;2022-12-10T11:22:23;19.70;42.70
49379;DHT22;35254;47.990;-1.608;2022-12-10T11:24:49;19.70;43.30
49379;DHT22;35254;47.990;-1.608;2022-12-10T11:30:12;19.80;42.90
49379;DHT22;35254;47.990;-1.608;2022-12-10T11:35:40;19.80;42.70
49379;DHT22;35254;47.990;-1.608;2022-12-10T11:38:21;19.80;42.50
49379;DHT22;35254;47.990;-1.608;2022-12-10T11:41:12;19.80;42.40
49379;DHT22;35254;47.990;-1.608;2022-12-10T11:48:58;19.90;41.90
49379;DHT22;35254;47.990;-1.608;2022-12-10T11:51:34;19.90;42.00
49379;DHT22;35254;47.990;-1.608;2022-12-10T11:56:52;19.90;41.60
49379;DHT22;35254;47.990;-1.608;2022-12-10T11:59:26;19.90;41.80
49379;DHT22;35254;47.990;-1.608;2022-12-10T12:01:59;19.90;41.60
49379;DHT22;35254;47.990;-1.608;2022-12-10T12:12:55;19.90;42.80
49379;DHT22;35254;47.990;-1.608;2022-12-10T12:15:28;20.00;43.70
49379;DHT22;35254;47.990;-1.608;2022-12-10T12:18:02;20.00;43.00
49379;DHT22;35254;47.990;-1.608;2022-12-10T12:20:42;19.90;42.80
49379;DHT22;35254;47.990;-1.608;2022-12-10T12:25:48;20.00;44.90
49379;DHT22;35254;47.990;-1.608;2022-12-10T12:28:39;20.10;43.50
49379;DHT22;35254;47.990;-1.608;2022-12-10T12:31:09;20.10;42.90
49379;DHT22;35254;47.990;-1.608;2022-12-10T12:34:03;20.10;44.00
49379;DHT22;35254;47.990;-1.608;2022-12-10T12:36:33;20.00;43.50
49379;DHT22;35254;47.990;-1.608;2022-12-10T12:39:20;20.00;43.50
49379;DHT22;35254;47.990;-1.608;2022-12-10T12:42:00;20.10;44.10
49379;DHT22;35254;47.990;-1.608;2022-12-10T12:47:38;20.20;49.70
49379;DHT22;35254;47.990;-1.608;2022-12-10T12:50:14;20.30;53.70
49379;DHT22;35254;47.990;-1.608;2022-12-10T12:52:50;20.30;55.50
49379;DHT22;35254;47.990;-1.608;2022-12-10T12:55:21;20.30;54.80
49379;DHT22;35254;47.990;-1.608;2022-12-10T12:58:10;20.30;53.30
49379;DHT22;35254;47.990;-1.608;2022-12-10T13:00:37;20.30;51.00
49379;DHT22;35254;47.990;-1.608;2022-12-10T13:03:19;20.10;48.10
49379;DHT22;35254;47.990;-1.608;2022-12-10T13:05:48;19.90;46.80
49379;DHT22;35254;47.990;-1.608;2022-12-10T13:08:23;19.70;44.60
49379;DHT22;35254;47.990;-1.608;2022-12-10T13:13:37;19.70;45.30
49379;DHT22;35254;47.990;-1.608;2022-12-10T13:19:25;19.70;44.10
49379;DHT22;35254;47.990;-1.608;2022-12-10T13:27:16;20.00;43.30
49379;DHT22;35254;47.990;-1.608;2022-12-10T13:43:39;20.10;43.10
49379;DHT22;35254;47.990;-1.608;2022-12-10T13:46:30;20.00;43.10
49379;DHT22;35254;47.990;-1.608;2022-12-10T13:49:02;20.00;43.10
49379;DHT22;35254;47.990;-1.608;2022-12-10T13:59:50;20.10;42.90
49379;DHT22;35254;47.990;-1.608;2022-12-10T14:02:36;20.10;42.80
49379;DHT22;35254;47.990;-1.608;2022-12-10T14:07:59;20.20;42.60
49379;DHT22;35254;47.990;-1.608;2022-12-10T14:10:32;20.20;42.60
49379;DHT22;35254;47.990;-1.608;2022-12-10T14:12:59;20.20;42.60
49379;DHT22;35254;47.990;-1.608;2022-12-10T14:15:26;20.20;42.60
49379;DHT22;35254;47.990;-1.608;2022-12-10T14:18:03;20.20;42.50
49379;DHT22;35254;47.990;-1.608;2022-12-10T14:20:31;20.20;42.50
49379;DHT22;35254;47.990;-1.608;2022-12-10T14:23:03;20.20;42.50
49379;DHT22;35254;47.990;-1.608;2022-12-10T14:25:48;20.20;42.50
49379;DHT22;35254;47.990;-1.608;2022-12-10T14:28:17;20.20;42.60
49379;DHT22;35254;47.990;-1.608;2022-12-10T14:30:48;20.20;42.40
49379;DHT22;35254;47.990;-1.608;2022-12-10T14:33:19;20.10;42.50
49379;DHT22;35254;47.990;-1.608;2022-12-10T14:35:48;20.20;42.60
49379;DHT22;35254;47.990;-1.608;2022-12-10T14:38:26;20.20;42.70
49379;DHT22;35254;47.990;-1.608;2022-12-10T14:40:54;20.20;42.50
49379;DHT22;35254;47.990;-1.608;2022-12-10T14:43:22;20.20;42.50
49379;DHT22;35254;47.990;-1.608;2022-12-10T14:45:53;20.20;42.60
49379;DHT22;35254;47.990;-1.608;2022-12-10T14:48:21;20.20;42.50
49379;DHT22;35254;47.990;-1.608;2022-12-10T14:50:47;20.10;42.50
49379;DHT22;35254;47.990;-1.608;2022-12-10T14:53:16;20.20;42.40
49379;DHT22;35254;47.990;-1.608;2022-12-10T14:55:44;20.10;42.40
49379;DHT22;35254;47.990;-1.608;2022-12-10T14:58:27;20.10;42.30
49379;DHT22;35254;47.990;-1.608;2022-12-10T15:00:54;20.10;42.30
49379;DHT22;35254;47.990;-1.608;2022-12-10T15:03:26;20.10;42.30
49379;DHT22;35254;47.990;-1.608;2022-12-10T15:06:01;20.10;42.10
49379;DHT22;35254;47.990;-1.608;2022-12-10T15:08:28;20.00;42.30
49379;DHT22;35254;47.990;-1.608;2022-12-10T15:10:57;20.10;42.30
49379;DHT22;35254;47.990;-1.608;2022-12-10T15:13:39;20.00;42.40
49379;DHT22;35254;47.990;-1.608;2022-12-10T15:16:05;20.00;42.40
49379;DHT22;35254;47.990;-1.608;2022-12-10T15:18:38;20.00;42.30
49379;DHT22;35254;47.990;-1.608;2022-12-10T15:23:33;20.00;42.30
49379;DHT22;35254;47.990;-1.608;2022-12-10T15:26:09;19.90;42.40
49379;DHT22;35254;47.990;-1.608;2022-12-10T15:28:38;19.90;42.10
49379;DHT22;35254;47.990;-1.608;2022-12-10T15:36:30;19.90;42.30
49379;DHT22;35254;47.990;-1.608;2022-12-10T15:38:57;19.90;42.30
49379;DHT22;35254;47.990;-1.608;2022-12-10T15:44:40;19.90;42.40
49379;DHT22;35254;47.990;-1.608;2022-12-10T15:49:36;19.90;42.50
49379;DHT22;35254;47.990;-1.608;2022-12-10T15:52:02;19.90;42.40
49379;DHT22;35254;47.990;-1.608;2022-12-10T15:54:33;19.90;42.40
49379;DHT22;35254;47.990;-1.608;2022-12-10T15:57:04;19.90;42.40
49379;DHT22;35254;47.990;-1.608;2022-12-10T15:59:32;19.90;42.40
49379;DHT22;35254;47.990;-1.608;2022-12-10T16:01:59;19.90;42.20
49379;DHT22;35254;47.990;-1.608;2022-12-10T16:04:27;19.90;42.00
49379;DHT22;35254;47.990;-1.608;2022-12-10T16:06:53;19.90;42.00
49379;DHT22;35254;47.990;-1.608;2022-12-10T16:09:18;19.90;42.00
49379;DHT22;35254;47.990;-1.608;2022-12-10T16:11:44;19.90;42.20
49379;DHT22;35254;47.990;-1.608;2022-12-10T16:14:10;20.00;42.10
49379;DHT22;35254;47.990;-1.608;2022-12-10T16:16:38;19.90;42.10
49379;DHT22;35254;47.990;-1.608;2022-12-10T16:19:10;19.90;42.00
49379;DHT22;35254;47.990;-1.608;2022-12-10T16:21:36;19.90;42.10
49379;DHT22;35254;47.990;-1.608;2022-12-10T16:24:02;19.90;42.20
49379;DHT22;35254;47.990;-1.608;2022-12-10T16:26:30;19.90;42.10
49379;DHT22;35254;47.990;-1.608;2022-12-10T16:28:56;19.90;42.10
49379;DHT22;35254;47.990;-1.608;2022-12-10T16:31:21;19.90;42.20
49379;DHT22;35254;47.990;-1.608;2022-12-10T16:33:47;19.90;42.10
49379;DHT22;35254;47.990;-1.608;2022-12-10T16:36:17;19.80;42.10
49379;DHT22;35254;47.990;-1.608;2022-12-10T16:38:43;19.90;42.20
49379;DHT22;35254;47.990;-1.608;2022-12-10T16:41:17;19.90;42.30
49379;DHT22;35254;47.990;-1.608;2022-12-10T16:43:44;19.80;42.20
49379;DHT22;35254;47.990;-1.608;2022-12-10T16:46:10;19.80;42.50
49379;DHT22;35254;47.990;-1.608;2022-12-10T16:48:36;19.80;42.50
49379;DHT22;35254;47.990;-1.608;2022-12-10T16:51:02;19.80;42.60
49379;DHT22;35254;47.990;-1.608;2022-12-10T16:53:29;19.80;42.60
49379;DHT22;35254;47.990;-1.608;2022-12-10T16:55:59;19.90;42.40
49379;DHT22;35254;47.990;-1.608;2022-12-10T16:58:25;19.90;42.20
49379;DHT22;35254;47.990;-1.608;2022-12-10T17:00:53;19.90;42.50
49379;DHT22;35254;47.990;-1.608;2022-12-10T17:03:21;19.80;42.40
49379;DHT22;35254;47.990;-1.608;2022-12-10T17:05:56;19.90;44.20
49379;DHT22;35254;47.990;-1.608;2022-12-10T17:08:27;19.90;45.20
49379;DHT22;35254;47.990;-1.608;2022-12-10T17:10:54;19.90;46.50
49379;DHT22;35254;47.990;-1.608;2022-12-10T17:13:40;19.90;45.50
49379;DHT22;35254;47.990;-1.608;2022-12-10T17:16:08;19.90;45.10
49379;DHT22;35254;47.990;-1.608;2022-12-10T17:18:35;19.80;45.00
49379;DHT22;35254;47.990;-1.608;2022-12-10T17:21:01;19.90;45.00
49379;DHT22;35254;47.990;-1.608;2022-12-10T17:23:27;19.80;44.80
49379;DHT22;35254;47.990;-1.608;2022-12-10T17:26:01;19.80;45.00
49379;DHT22;35254;47.990;-1.608;2022-12-10T17:28:27;19.90;44.60